Time;durP1;ratioP1;P1;durP2;ratioP2;P2;SDS_P1;SDS_P2;PMS_P1;PMS_P2;Temp;Humidity;BMP_temperature;BMP_pressure;BME280_temperature;BME280_humidity;BME280_pressure;Samples;Min_cycle;Max_cycle;Signal;HPM_P1;HPM_P2
2023/07/17 00:00:37;;;;;;;5.07;3.60;;;15.80;99.90;;;;;;5061479;28;20772;-65
2023/07/17 00:03:15;;;;;;;5.97;3.70;;;15.70;99.90;;;;;;5069883;28;20277;-66
2023/07/17 00:05:43;;;;;;;4.23;3.70;;;15.70;99.90;;;;;;5055017;28;20678;-65
2023/07/17 00:08:11;;;;;;;6.53;3.50;;;15.60;99.90;;;;;;5072863;28;20232;-67
2023/07/17 00:10:41;;;;;;;10.13;3.70;;;15.60;99.90;;;;;;5057769;28;20205;-66
2023/07/17 00:13:09;;;;;;;7.80;3.53;;;15.60;99.90;;;;;;5056933;28;20187;-66
2023/07/17 00:15:37;;;;;;;4.17;3.30;;;15.60;99.90;;;;;;5054390;28;20192;-66
2023/07/17 00:18:06;;;;;;;5.60;3.80;;;15.50;99.90;;;;;;5064941;28;20194;-66
2023/07/17 00:20:36;;;;;;;9.67;4.17;;;15.50;99.90;;;;;;5058081;28;20260;-66
2023/07/17 00:23:04;;;;;;;10.87;3.67;;;15.50;99.90;;;;;;5057709;28;20604;-66
2023/07/17 00:25:36;;;;;;;5.77;3.70;;;15.50;99.90;;;;;;5051349;28;20191;-67
2023/07/17 00:28:04;;;;;;;11.37;3.87;;;15.40;99.90;;;;;;5064574;28;20223;-66
2023/07/17 00:30:32;;;;;;;11.70;3.63;;;15.40;99.90;;;;;;5058050;28;20196;-66
2023/07/17 00:33:01;;;;;;;7.53;3.47;;;15.40;99.90;;;;;;5053553;28;20290;-66
2023/07/17 00:35:29;;;;;;;7.53;3.80;;;15.40;99.90;;;;;;5053839;28;20292;-66
2023/07/17 00:37:59;;;;;;;8.97;3.43;;;15.40;99.90;;;;;;5065871;28;20536;-66
2023/07/17 00:40:27;;;;;;;8.20;3.77;;;15.30;99.90;;;;;;5066368;28;20250;-66
2023/07/17 00:42:58;;;;;;;8.27;3.40;;;15.30;99.90;;;;;;5073838;28;20192;-66
2023/07/17 00:45:26;;;;;;;7.87;3.63;;;15.30;99.90;;;;;;5073172;28;20187;-66
2023/07/17 00:47:55;;;;;;;6.90;3.23;;;15.20;99.90;;;;;;5064493;28;20225;-65
2023/07/17 00:50:23;;;;;;;7.33;3.53;;;15.10;99.90;;;;;;5067970;28;20190;-66
2023/07/17 00:52:52;;;;;;;9.10;3.70;;;15.10;99.90;;;;;;5070023;28;20201;-66
2023/07/17 00:55:22;;;;;;;7.50;3.60;;;15.10;99.90;;;;;;5055013;28;20214;-65
2023/07/17 00:57:52;;;;;;;6.17;3.27;;;15.10;99.90;;;;;;5070233;28;20687;-66
2023/07/17 01:00:23;;;;;;;5.77;3.43;;;15.00;99.90;;;;;;5055357;28;20309;-66
2023/07/17 01:02:52;;;;;;;7.90;3.80;;;14.90;99.90;;;;;;5067582;28;20179;-65
2023/07/17 01:05:24;;;;;;;6.40;3.50;;;14.90;99.90;;;;;;5060517;28;20219;-66
2023/07/17 01:07:56;;;;;;;4.53;3.60;;;14.90;99.90;;;;;;5065760;28;20220;-66
2023/07/17 01:10:26;;;;;;;6.30;3.63;;;14.80;99.90;;;;;;5056959;28;20185;-66
2023/07/17 01:12:55;;;;;;;5.23;3.40;;;14.80;99.90;;;;;;5070319;28;20702;-65
2023/07/17 01:15:23;;;;;;;5.90;3.57;;;14.80;99.90;;;;;;5066233;28;20193;-66
2023/07/17 01:17:51;;;;;;;5.60;3.77;;;14.70;99.90;;;;;;5066843;28;20191;-66
2023/07/17 01:20:20;;;;;;;6.73;3.43;;;14.70;99.90;;;;;;5052904;28;20213;-66
2023/07/17 01:22:54;;;;;;;11.17;3.20;;;14.70;99.90;;;;;;5058236;28;20636;-65
2023/07/17 01:25:23;;;;;;;6.57;3.50;;;14.70;99.90;;;;;;5072259;28;20628;-65
2023/07/17 01:27:51;;;;;;;7.73;3.80;;;14.60;99.90;;;;;;5052954;28;20205;-66
2023/07/17 01:30:20;;;;;;;6.13;3.63;;;14.60;99.90;;;;;;5050519;28;20194;-65
2023/07/17 01:32:48;;;;;;;6.00;3.40;;;14.60;99.90;;;;;;5062804;28;20224;-66
2023/07/17 01:35:16;;;;;;;4.67;3.10;;;14.60;99.90;;;;;;5052895;28;20201;-66
2023/07/17 01:37:45;;;;;;;6.57;3.63;;;14.60;99.90;;;;;;5061065;28;20705;-66
2023/07/17 01:40:16;;;;;;;6.67;3.40;;;14.60;99.90;;;;;;5059685;28;20204;-66
2023/07/17 01:42:45;;;;;;;8.70;3.60;;;14.60;99.90;;;;;;5059798;28;20207;-66
2023/07/17 01:45:13;;;;;;;5.77;3.43;;;14.60;99.90;;;;;;5062857;28;20203;-67
2023/07/17 01:47:41;;;;;;;4.57;3.00;;;14.60;99.90;;;;;;5059037;28;20263;-66
2023/07/17 01:50:10;;;;;;;5.43;3.30;;;14.60;99.90;;;;;;5057713;28;20192;-66
2023/07/17 01:52:39;;;;;;;4.63;3.00;;;14.60;99.90;;;;;;5071168;28;20200;-66
2023/07/17 01:55:08;;;;;;;8.33;3.43;;;14.70;99.90;;;;;;5053018;28;20196;-66
2023/07/17 01:57:38;;;;;;;7.67;3.60;;;14.70;99.90;;;;;;5053034;28;20250;-66
2023/07/17 02:00:08;;;;;;;7.87;3.40;;;14.60;99.90;;;;;;5057967;28;20721;-66
2023/07/17 02:02:37;;;;;;;7.10;3.33;;;14.60;99.90;;;;;;5051475;28;20598;-66
2023/07/17 02:05:06;;;;;;;4.23;3.27;;;14.60;99.90;;;;;;5059305;28;20223;-66
2023/07/17 02:07:34;;;;;;;6.03;3.10;;;14.60;99.90;;;;;;5056562;28;20185;-66
2023/07/17 02:10:05;;;;;;;7.43;3.20;;;14.60;99.90;;;;;;5059622;28;20208;-66
2023/07/17 02:12:33;;;;;;;6.60;3.57;;;14.50;99.90;;;;;;5067990;28;20171;-66
2023/07/17 02:15:03;;;;;;;7.73;3.70;;;14.60;99.90;;;;;;5051888;28;20204;-66
2023/07/17 02:17:31;;;;;;;5.93;3.60;;;14.60;99.90;;;;;;5052000;28;20200;-66
2023/07/17 02:19:59;;;;;;;7.10;3.50;;;14.60;99.90;;;;;;5059592;28;20374;-66
2023/07/17 02:22:28;;;;;;;6.97;3.60;;;14.60;99.90;;;;;;5063235;28;20188;-66
2023/07/17 02:24:57;;;;;;;4.90;3.13;;;14.60;99.90;;;;;;5053183;28;20221;-66
2023/07/17 02:27:26;;;;;;;7.77;3.80;;;14.60;99.90;;;;;;5061609;28;20193;-66
2023/07/17 02:29:54;;;;;;;5.47;3.30;;;14.70;99.90;;;;;;5047906;28;20186;-66
2023/07/17 02:32:24;;;;;;;3.80;3.40;;;14.60;99.90;;;;;;5069960;28;20212;-66
2023/07/17 02:34:52;;;;;;;8.50;3.87;;;14.60;99.90;;;;;;5052914;28;20197;-66
2023/07/17 02:37:20;;;;;;;7.17;3.83;;;14.50;99.90;;;;;;5054048;28;20664;-66
2023/07/17 02:39:49;;;;;;;3.63;3.20;;;14.50;99.90;;;;;;5042954;28;20255;-66
2023/07/17 02:42:18;;;;;;;8.73;3.60;;;14.50;99.90;;;;;;5068724;28;20210;-66
2023/07/17 02:44:46;;;;;;;5.27;3.20;;;14.50;99.90;;;;;;5053997;28;20300;-67
2023/07/17 02:47:17;;;;;;;7.50;3.93;;;14.40;99.90;;;;;;5052044;28;20584;-65
2023/07/17 02:49:46;;;;;;;6.50;3.40;;;14.40;99.90;;;;;;5064753;28;20185;-65
2023/07/17 02:52:14;;;;;;;5.87;3.30;;;14.40;99.90;;;;;;5070608;28;20193;-65
2023/07/17 02:54:43;;;;;;;5.97;3.47;;;14.40;99.90;;;;;;5069082;28;20267;-65
2023/07/17 02:57:11;;;;;;;11.47;3.90;;;14.30;99.90;;;;;;5066223;28;20225;-66
2023/07/17 02:59:39;;;;;;;3.90;3.60;;;14.30;99.90;;;;;;5064636;28;20525;-66
2023/07/17 03:02:08;;;;;;;7.97;3.97;;;14.30;99.90;;;;;;5055716;28;20210;-66
2023/07/17 03:04:36;;;;;;;7.53;3.60;;;14.30;99.90;;;;;;5056396;28;20262;-66
2023/07/17 03:07:06;;;;;;;9.70;3.90;;;14.30;99.90;;;;;;5060928;28;20630;-66
2023/07/17 03:09:35;;;;;;;7.33;3.47;;;14.30;99.90;;;;;;5057195;28;20190;-66
2023/07/17 03:12:03;;;;;;;5.80;3.60;;;14.20;99.90;;;;;;5061800;28;20192;-66
2023/07/17 03:14:31;;;;;;;8.13;3.40;;;14.20;99.90;;;;;;5054197;28;20596;-66
2023/07/17 03:17:00;;;;;;;4.93;3.20;;;14.20;99.90;;;;;;5061310;28;20251;-66
2023/07/17 03:19:28;;;;;;;7.07;3.63;;;14.10;99.90;;;;;;5071625;28;20276;-66
2023/07/17 03:21:56;;;;;;;6.53;3.57;;;14.10;99.90;;;;;;5055579;28;20652;-66
2023/07/17 03:24:26;;;;;;;5.97;3.37;;;14.10;99.90;;;;;;5053591;28;20185;-66
2023/07/17 03:26:54;;;;;;;6.40;3.57;;;14.10;99.90;;;;;;5066973;28;20193;-66
2023/07/17 03:29:23;;;;;;;9.63;3.73;;;14.10;99.90;;;;;;5055640;28;20188;-66
2023/07/17 03:31:51;;;;;;;6.40;4.00;;;14.00;99.90;;;;;;5067970;28;20228;-66
2023/07/17 03:34:20;;;;;;;6.20;3.83;;;14.00;99.90;;;;;;5060823;28;20238;-66
2023/07/17 03:36:48;;;;;;;5.03;3.73;;;14.00;99.90;;;;;;5069359;28;20211;-66
2023/07/17 03:39:16;;;;;;;8.57;3.63;;;14.00;99.90;;;;;;5055253;28;20203;-66
2023/07/17 03:41:46;;;;;;;7.00;3.73;;;13.90;99.90;;;;;;5069033;28;20590;-66
2023/07/17 03:44:14;;;;;;;5.83;3.60;;;13.90;99.90;;;;;;5057834;28;20191;-65
2023/07/17 03:46:43;;;;;;;5.93;3.80;;;13.90;99.90;;;;;;5070560;28;20207;-66
2023/07/17 03:49:11;;;;;;;4.20;3.60;;;13.90;99.90;;;;;;5058965;28;20231;-66
2023/07/17 03:51:39;;;;;;;7.00;4.27;;;13.90;99.90;;;;;;5064327;28;20211;-66
2023/07/17 03:54:08;;;;;;;4.77;3.67;;;13.90;99.90;;;;;;5060792;28;20199;-65
2023/07/17 03:56:39;;;;;;;7.27;4.43;;;13.90;99.90;;;;;;5074583;28;20279;-65
2023/07/17 03:59:08;;;;;;;11.07;4.50;;;13.90;99.90;;;;;;5064071;28;20189;-66
2023/07/17 04:01:37;;;;;;;6.47;3.80;;;13.80;99.90;;;;;;5044724;28;20267;-66
2023/07/17 04:04:06;;;;;;;7.20;3.83;;;13.80;99.90;;;;;;5044034;28;20241;-66
2023/07/17 04:06:35;;;;;;;7.60;4.40;;;13.80;99.90;;;;;;5069203;28;20212;-65
2023/07/17 04:09:04;;;;;;;15.60;4.07;;;13.80;99.90;;;;;;5064841;28;20193;-66
2023/07/17 04:11:32;;;;;;;6.70;3.77;;;13.80;99.90;;;;;;5067107;28;20643;-65
2023/07/17 04:14:00;;;;;;;18.07;4.37;;;13.80;99.90;;;;;;5054940;28;20554;-65
2023/07/17 04:16:30;;;;;;;7.30;3.90;;;13.80;99.90;;;;;;5069603;28;20199;-65
2023/07/17 04:18:58;;;;;;;7.40;4.03;;;13.80;99.90;;;;;;5066638;28;20223;-66
2023/07/17 04:21:27;;;;;;;10.43;4.30;;;13.80;99.90;;;;;;5074557;28;20208;-65
2023/07/17 04:23:55;;;;;;;10.93;4.40;;;13.80;99.90;;;;;;5051309;28;20385;-66
2023/07/17 04:26:24;;;;;;;6.47;3.70;;;13.80;99.90;;;;;;5053451;28;20193;-65
2023/07/17 04:28:53;;;;;;;10.27;4.70;;;13.90;99.90;;;;;;5072108;28;20190;-65
2023/07/17 04:31:21;;;;;;;7.90;4.13;;;13.90;99.90;;;;;;5058976;28;20237;-65
2023/07/17 04:33:51;;;;;;;8.80;4.43;;;13.90;99.90;;;;;;5067770;28;20272;-66
2023/07/17 04:36:20;;;;;;;10.17;4.30;;;13.90;99.90;;;;;;5059046;28;20204;-65
2023/07/17 04:38:48;;;;;;;10.70;5.10;;;14.00;99.90;;;;;;5054349;28;20204;-66
2023/07/17 04:41:17;;;;;;;9.87;4.37;;;14.00;99.90;;;;;;5063880;28;20569;-65
2023/07/17 04:43:46;;;;;;;7.80;4.33;;;14.00;99.90;;;;;;5061735;28;20213;-66
2023/07/17 04:46:15;;;;;;;6.63;4.27;;;14.10;99.90;;;;;;5064055;28;20219;-66
2023/07/17 04:48:43;;;;;;;13.20;5.47;;;14.20;99.90;;;;;;5073917;28;20224;-65
2023/07/17 04:51:13;;;;;;;9.47;4.47;;;14.20;99.90;;;;;;5067844;28;20201;-65
2023/07/17 04:53:41;;;;;;;7.80;4.43;;;14.30;99.90;;;;;;5063037;28;20198;-66
2023/07/17 04:56:09;;;;;;;8.47;4.23;;;14.30;99.90;;;;;;5073289;28;20193;-66
2023/07/17 04:58:38;;;;;;;13.23;4.50;;;14.40;99.90;;;;;;5068042;28;20642;-66
2023/07/17 05:01:06;;;;;;;11.40;4.57;;;14.50;99.90;;;;;;5063128;28;20196;-65
2023/07/17 05:03:36;;;;;;;10.73;4.67;;;14.60;99.90;;;;;;5066854;28;20672;-65
2023/07/17 05:06:04;;;;;;;8.17;4.27;;;14.70;99.90;;;;;;5059141;28;20202;-65
2023/07/17 05:08:34;;;;;;;12.53;4.37;;;14.80;99.90;;;;;;5068183;28;20195;-65
2023/07/17 05:11:04;;;;;;;10.33;4.73;;;14.90;99.90;;;;;;5055932;28;20229;-66
2023/07/17 05:13:33;;;;;;;5.93;4.20;;;15.00;99.90;;;;;;5053439;28;20189;-66
2023/07/17 05:16:02;;;;;;;6.20;4.00;;;15.10;99.90;;;;;;5047474;28;20229;-65
2023/07/17 05:18:30;;;;;;;11.07;4.30;;;15.20;99.90;;;;;;5053880;28;20200;-65
2023/07/17 05:20:59;;;;;;;9.23;4.70;;;15.30;99.90;;;;;;5061048;28;20281;-65
2023/07/17 05:23:27;;;;;;;7.40;4.17;;;15.30;99.90;;;;;;5069184;28;20207;-65
2023/07/17 05:25:59;;;;;;;10.70;4.67;;;15.50;99.90;;;;;;5053016;28;20197;-65
2023/07/17 05:28:28;;;;;;;8.00;4.50;;;15.60;99.90;;;;;;5065455;28;20509;-66
2023/07/17 05:30:57;;;;;;;8.23;4.20;;;15.70;99.60;;;;;;5052875;28;20202;-65
2023/07/17 05:33:26;;;;;;;11.47;4.70;;;15.70;99.60;;;;;;5053197;28;20189;-66
2023/07/17 05:35:54;;;;;;;9.40;4.70;;;15.80;97.60;;;;;;5052756;28;20200;-65
2023/07/17 05:38:23;;;;;;;15.20;4.90;;;15.90;97.30;;;;;;5062333;28;20734;-65
2023/07/17 05:41:00;;;;;;;10.13;4.67;;;16.00;97.40;;;;;;5067407;28;20246;-65
2023/07/17 05:43:28;;;;;;;6.03;4.53;;;16.20;89.80;;;;;;5072154;28;20199;-65
2023/07/17 05:45:56;;;;;;;8.73;4.80;;;16.20;83.50;;;;;;5057932;28;20244;-65
2023/07/17 05:48:25;;;;;;;8.40;4.50;;;16.30;83.90;;;;;;5066007;28;20223;-65
2023/07/17 05:50:53;;;;;;;9.10;4.60;;;16.30;83.30;;;;;;5052445;28;20194;-65
2023/07/17 05:53:21;;;;;;;13.70;5.50;;;16.30;83.40;;;;;;5058501;28;20195;-65
2023/07/17 05:55:53;;;;;;;8.67;4.80;;;16.40;86.40;;;;;;5069351;28;20186;-65
2023/07/17 05:58:24;;;;;;;9.33;4.77;;;16.60;76.80;;;;;;5055130;28;20203;-66
2023/07/17 06:00:52;;;;;;;8.20;5.03;;;16.80;75.00;;;;;;5059990;28;20624;-65
2023/07/17 06:03:21;;;;;;;15.23;5.67;;;16.90;68.00;;;;;;5059313;28;20206;-65
2023/07/17 06:05:49;;;;;;;10.43;5.40;;;17.00;68.40;;;;;;5060189;28;20298;-65
2023/07/17 06:08:17;;;;;;;11.10;5.73;;;17.10;59.80;;;;;;5072878;28;20203;-65
2023/07/17 06:10:46;;;;;;;14.90;5.93;;;17.20;47.10;;;;;;5072502;28;20531;-65
2023/07/17 06:13:16;;;;;;;14.10;5.37;;;17.30;55.60;;;;;;5063440;28;20217;-65
2023/07/17 06:15:46;;;;;;;12.13;5.27;;;17.40;47.20;;;;;;5058872;28;20360;-65
2023/07/17 06:18:14;;;;;;;11.87;5.10;;;17.70;44.70;;;;;;5057043;28;20192;-65
2023/07/17 06:20:43;;;;;;;17.10;5.63;;;17.80;35.60;;;;;;5058290;28;20219;-65
2023/07/17 06:23:11;;;;;;;15.17;5.83;;;17.90;27.90;;;;;;5062915;28;20216;-65
2023/07/17 06:25:40;;;;;;;9.17;5.60;;;18.20;30.10;;;;;;5044742;28;20208;-65
2023/07/17 06:28:09;;;;;;;11.87;6.30;;;18.50;99.90;;;;;;5052271;28;20197;-65
2023/07/17 06:30:37;;;;;;;8.57;5.20;;;18.60;99.90;;;;;;5048549;28;20184;-65
2023/07/17 06:33:07;;;;;;;15.83;6.10;;;18.70;99.90;;;;;;5070145;28;20267;-65
2023/07/17 06:35:35;;;;;;;15.30;6.37;;;19.00;99.90;;;;;;5047875;28;20283;-65
2023/07/17 06:38:04;;;;;;;13.20;6.00;;;19.20;99.90;;;;;;5051009;28;20196;-65
2023/07/17 06:40:34;;;;;;;12.10;6.07;;;19.30;99.90;;;;;;5050874;28;20320;-65
2023/07/17 06:43:02;;;;;;;12.63;6.23;;;19.40;99.90;;;;;;5066656;28;20227;-65
2023/07/17 06:45:31;;;;;;;8.57;5.90;;;19.50;99.90;;;;;;5055628;28;20216;-65
2023/07/17 06:47:59;;;;;;;12.20;6.97;;;19.60;99.90;;;;;;5057096;28;20320;-65
2023/07/17 06:50:30;;;;;;;10.63;5.90;;;19.50;99.90;;;;;;5058249;28;20199;-65
2023/07/17 06:52:58;;;;;;;17.13;7.00;;;19.60;99.90;;;;;;5043005;28;20193;-66
2023/07/17 06:55:27;;;;;;;13.50;6.37;;;19.80;99.90;;;;;;5060989;28;20294;-66
2023/07/17 06:57:56;;;;;;;13.57;6.77;;;19.80;99.90;;;;;;5064058;28;20193;-66
2023/07/17 07:00:27;;;;;;;14.73;6.90;;;20.00;99.90;;;;;;5058666;28;20201;-66
2023/07/17 07:02:55;;;;;;;13.07;6.57;;;20.10;99.90;;;;;;5077690;28;20212;-66
2023/07/17 07:05:25;;;;;;;14.10;6.73;;;20.20;99.90;;;;;;5051922;28;20197;-66
2023/07/17 07:07:55;;;;;;;10.70;6.53;;;20.40;99.90;;;;;;5066757;28;20208;-65
2023/07/17 07:10:23;;;;;;;15.83;6.00;;;20.50;99.90;;;;;;5068652;28;20187;-65
2023/07/17 07:12:51;;;;;;;14.07;6.30;;;20.70;99.90;;;;;;5055379;28;20190;-65
2023/07/17 07:15:20;;;;;;;16.93;6.33;;;20.70;99.90;;;;;;5062232;28;20190;-65
2023/07/17 07:17:48;;;;;;;12.93;6.17;;;20.70;99.90;;;;;;5072822;28;20273;-66
2023/07/17 07:20:17;;;;;;;13.43;6.00;;;20.80;99.90;;;;;;5060917;28;20601;-66
2023/07/17 07:22:45;;;;;;;10.90;6.60;;;20.90;99.90;;;;;;5053931;28;20206;-65
2023/07/17 07:25:15;;;;;;;10.70;6.00;;;21.10;99.90;;;;;;5054974;28;20203;-65
2023/07/17 07:27:43;;;;;;;10.63;6.43;;;21.10;99.90;;;;;;5055241;28;20207;-65
2023/07/17 07:30:12;;;;;;;13.00;6.23;;;21.10;99.90;;;;;;5063321;28;20195;-65
2023/07/17 07:32:40;;;;;;;8.73;5.80;;;21.30;99.90;;;;;;5048052;28;20193;-65
2023/07/17 07:35:09;;;;;;;13.43;5.57;;;21.30;99.90;;;;;;5046014;28;20538;-65
2023/07/17 07:37:38;;;;;;;8.87;5.70;;;21.70;99.90;;;;;;5035634;28;20204;-62
2023/07/17 07:40:10;;;;;;;11.27;6.53;;;22.00;99.90;;;;;;5054343;28;20674;-63
2023/07/17 07:42:40;;;;;;;9.43;6.30;;;22.50;99.90;;;;;;5053844;28;20189;-63
2023/07/17 07:45:10;;;;;;;9.53;6.27;;;22.90;99.90;;;;;;5050602;28;20220;-62
2023/07/17 07:47:39;;;;;;;10.17;6.47;;;23.10;99.90;;;;;;5057648;28;20255;-62
2023/07/17 07:50:10;;;;;;;9.48;6.22;;;23.30;99.90;;;;;;5046196;28;20543;-62
2023/07/17 07:52:39;;;;;;;15.15;6.10;;;23.60;99.90;;;;;;5058014;28;20189;-63
2023/07/17 07:55:07;;;;;;;10.35;6.18;;;23.70;99.90;;;;;;5050260;28;20212;-62
2023/07/17 07:57:39;;;;;;;11.02;5.80;;;23.80;99.90;;;;;;5050701;28;20193;-62
2023/07/17 08:00:09;;;;;;;11.80;6.37;;;23.30;99.90;;;;;;5045135;28;20552;-63
2023/07/17 08:02:37;;;;;;;14.67;6.40;;;22.80;99.90;;;;;;5063210;28;20979;-62
2023/07/17 08:05:06;;;;;;;11.67;6.10;;;22.40;99.90;;;;;;5048965;28;20225;-62
2023/07/17 08:07:34;;;;;;;9.13;5.63;;;22.40;99.90;;;;;;5056191;28;20184;-62
2023/07/17 08:10:03;;;;;;;10.00;6.50;;;22.40;99.90;;;;;;5052138;28;20323;-62
2023/07/17 08:12:32;;;;;;;8.23;5.90;;;22.20;99.90;;;;;;5058991;28;20666;-62
2023/07/17 08:15:02;;;;;;;8.47;5.87;;;22.20;99.90;;;;;;5059649;28;20189;-62
2023/07/17 08:17:30;;;;;;;10.60;6.00;;;22.10;99.90;;;;;;5057116;28;20650;-62
2023/07/17 08:19:59;;;;;;;10.77;5.80;;;21.60;99.90;;;;;;5057659;28;20280;-62
2023/07/17 08:22:27;;;;;;;14.07;6.40;;;21.20;99.90;;;;;;5052928;28;20212;-61
2023/07/17 08:24:55;;;;;;;12.17;5.90;;;21.30;99.90;;;;;;5046465;28;20223;-62
2023/07/17 08:27:26;;;;;;;7.47;5.60;;;21.60;99.90;;;;;;5051988;28;20603;-62
2023/07/17 08:29:54;;;;;;;11.17;5.60;;;21.80;99.90;;;;;;5050727;28;20192;-62
2023/07/17 08:32:27;;;;;;;9.77;5.50;;;21.70;99.90;;;;;;5048340;28;20202;-62
2023/07/17 08:34:55;;;;;;;8.33;5.60;;;21.20;99.90;;;;;;5047609;28;20294;-62
2023/07/17 08:37:23;;;;;;;9.47;6.20;;;20.90;99.90;;;;;;5052157;28;20190;-62
2023/07/17 08:39:52;;;;;;;11.27;5.80;;;20.70;99.90;;;;;;5056566;28;20582;-62
2023/07/17 08:42:21;;;;;;;6.93;5.10;;;20.70;99.90;;;;;;5054825;28;20224;-63
2023/07/17 08:44:51;;;;;;;8.87;5.97;;;21.40;99.90;;;;;;5053276;28;20672;-62
2023/07/17 08:47:21;;;;;;;9.40;5.67;;;21.50;99.90;;;;;;5042093;28;20233;-63
2023/07/17 08:49:52;;;;;;;10.73;5.57;;;21.60;99.90;;;;;;5040305;28;20202;-62
2023/07/17 08:52:20;;;;;;;6.63;5.27;;;21.40;99.90;;;;;;5039024;28;20195;-62
2023/07/17 08:54:49;;;;;;;9.27;5.40;;;21.80;99.90;;;;;;5049489;28;20684;-63
2023/07/17 08:57:18;;;;;;;8.40;4.30;;;23.00;99.90;;;;;;5039391;28;20713;-62
2023/07/17 08:59:47;;;;;;;9.40;4.67;;;23.80;99.90;;;;;;5042045;28;20212;-63
2023/07/17 09:02:16;;;;;;;6.63;4.60;;;24.40;99.90;;;;;;5042823;28;20190;-63
2023/07/17 09:04:44;;;;;;;4.80;4.30;;;24.40;99.90;;;;;;5040484;28;20352;-63
2023/07/17 09:07:14;;;;;;;7.95;4.53;;;24.20;99.90;;;;;;5040517;28;20532;-63
2023/07/17 09:09:42;;;;;;;9.80;4.97;;;24.30;99.90;;;;;;5037905;28;20594;-63
2023/07/17 09:12:16;;;;;;;10.07;4.90;;;24.40;99.90;;;;;;5038079;28;21416;-61
2023/07/17 09:14:44;;;;;;;5.63;4.40;;;24.50;99.90;;;;;;5042926;28;20200;-62
2023/07/17 09:17:13;;;;;;;8.70;4.90;;;24.90;99.90;;;;;;5028913;28;20732;-62
2023/07/17 09:19:41;;;;;;;6.10;4.25;;;24.80;99.90;;;;;;5047300;28;20239;-62
2023/07/17 09:22:16;;;;;;;8.03;4.20;;;24.80;99.90;;;;;;5042294;28;20718;-62
2023/07/17 09:24:44;;;;;;;6.23;4.17;;;24.60;99.90;;;;;;5051971;28;20209;-62
2023/07/17 09:27:13;;;;;;;4.80;4.33;;;24.20;99.90;;;;;;5057268;28;20188;-62
2023/07/17 09:29:42;;;;;;;6.50;4.30;;;23.80;99.90;;;;;;5071727;28;20196;-61
2023/07/17 09:32:18;;;;;;;4.10;3.80;;;23.20;99.90;;;;;;5060667;28;20699;-62
2023/07/17 09:34:52;;;;;;;8.30;4.20;;;22.80;99.90;;;;;;5053127;28;20185;-61
2023/07/17 09:37:23;;;;;;;7.10;4.50;;;22.40;99.90;;;;;;5053280;28;20189;-61
2023/07/17 09:39:53;;;;;;;9.47;4.10;;;22.10;99.90;;;;;;5052642;28;20699;-61
2023/07/17 09:42:25;;;;;;;5.00;3.80;;;21.90;99.90;;;;;;5049798;28;20198;-62
2023/07/17 09:44:54;;;;;;;4.43;4.03;;;21.60;99.90;;;;;;5040870;28;20225;-62
2023/07/17 09:47:22;;;;;;;8.57;4.37;;;21.60;99.90;;;;;;5064645;28;20230;-62
2023/07/17 09:49:52;;;;;;;10.40;4.47;;;21.60;99.90;;;;;;5061122;28;20190;-62
2023/07/17 09:52:22;;;;;;;6.77;4.20;;;21.80;99.90;;;;;;5066952;28;20190;-62
2023/07/17 09:54:51;;;;;;;6.43;4.23;;;22.00;99.90;;;;;;5051776;28;20198;-62
2023/07/17 09:57:27;;;;;;;5.23;4.23;;;22.00;99.90;;;;;;5058859;28;20205;-61
2023/07/17 10:00:00;;;;;;;5.43;4.17;;;21.90;99.90;;;;;;5055505;28;20612;-61
2023/07/17 10:02:33;;;;;;;9.87;4.70;;;21.70;99.90;;;;;;5045191;28;20195;-62
2023/07/17 10:05:06;;;;;;;7.10;4.30;;;21.60;99.90;;;;;;5053071;28;20209;-61
2023/07/17 10:07:38;;;;;;;6.17;4.23;;;21.50;99.90;;;;;;5050837;28;20185;-62
2023/07/17 10:10:09;;;;;;;9.17;4.43;;;21.30;99.90;;;;;;5060698;28;20296;-61
2023/07/17 10:12:38;;;;;;;9.60;4.73;;;21.20;99.90;;;;;;5061231;28;20223;-61
2023/07/17 10:15:08;;;;;;;6.53;4.33;;;21.80;99.90;;;;;;5061916;28;20278;-62
2023/07/17 10:17:37;;;;;;;5.90;4.33;;;22.40;99.90;;;;;;5065808;28;20828;-61
2023/07/17 10:20:09;;;;;;;7.80;4.90;;;23.00;99.90;;;;;;5064114;28;20189;-61
2023/07/17 10:22:43;;;;;;;9.83;4.83;;;23.10;99.90;;;;;;5069180;28;20194;-62
2023/07/17 10:25:27;;;;;;;5.93;4.87;;;22.80;99.90;;;;;;5056148;28;20293;-62
2023/07/17 10:28:00;;;;;;;6.83;4.53;;;22.30;99.90;;;;;;5052853;28;20202;-62
2023/07/17 10:30:30;;;;;;;5.73;4.30;;;22.20;99.90;;;;;;5059940;28;20223;-62
2023/07/17 10:33:13;;;;;;;8.10;4.70;;;22.20;99.90;;;;;;5065732;28;20769;-62
2023/07/17 10:35:48;;;;;;;6.57;5.00;;;22.20;99.90;;;;;;5065977;28;20195;-62
2023/07/17 10:38:18;;;;;;;7.70;4.67;;;22.20;99.90;;;;;;5055173;28;20189;-62
2023/07/17 10:40:47;;;;;;;10.73;5.13;;;22.20;99.90;;;;;;5055056;28;20226;-62
2023/07/17 10:43:17;;;;;;;8.97;5.10;;;22.60;99.90;;;;;;5058442;28;20198;-61
2023/07/17 10:45:47;;;;;;;7.43;4.20;;;23.40;99.90;;;;;;5062659;28;20296;-62
2023/07/17 10:48:17;;;;;;;5.07;4.00;;;24.10;99.90;;;;;;5059288;28;20228;-65
2023/07/17 10:50:51;;;;;;;7.07;4.67;;;24.30;99.90;;;;;;5065955;28;20190;-66
2023/07/17 10:53:22;;;;;;;4.73;4.30;;;24.10;99.90;;;;;;5066090;28;20195;-66
2023/07/17 10:55:50;;;;;;;8.30;4.60;;;23.90;99.90;;;;;;5070297;28;20620;-65
2023/07/17 10:58:20;;;;;;;6.83;5.07;;;23.40;99.90;;;;;;5064940;28;20224;-65
2023/07/17 11:00:49;;;;;;;6.37;4.30;;;23.10;99.90;;;;;;5051408;28;20203;-65
2023/07/17 11:03:20;;;;;;;7.27;5.20;;;22.80;99.90;;;;;;5060525;28;20663;-65
2023/07/17 11:05:53;;;;;;;7.87;5.30;;;22.30;99.90;;;;;;5052604;28;20693;-66
2023/07/17 11:08:27;;;;;;;6.47;4.77;;;22.40;99.90;;;;;;5056496;28;20208;-66
2023/07/17 11:10:55;;;;;;;5.67;4.40;;;22.50;99.90;;;;;;5046400;28;20238;-66
2023/07/17 11:13:31;;;;;;;8.73;4.17;;;22.60;99.90;;;;;;5066978;28;20223;-65
2023/07/17 11:16:07;;;;;;;6.43;4.07;;;22.40;99.90;;;;;;5060374;28;20206;-65
2023/07/17 11:18:44;;;;;;;9.50;4.07;;;22.30;99.90;;;;;;5055703;28;20268;-66
2023/07/17 11:21:13;;;;;;;3.73;3.40;;;22.60;99.90;;;;;;5072958;28;20233;-65
2023/07/17 11:23:48;;;;;;;3.33;3.00;;;23.20;99.90;;;;;;5056459;28;20291;-65
2023/07/17 11:26:19;;;;;;;5.40;3.00;;;23.70;99.90;;;;;;5066497;28;20261;-66
2023/07/17 11:28:51;;;;;;;6.10;3.20;;;24.30;99.90;;;;;;5060019;28;20188;-61
2023/07/17 11:31:21;;;;;;;5.33;3.20;;;24.90;99.90;;;;;;5065892;28;20192;-65
2023/07/17 11:33:51;;;;;;;6.27;3.37;;;25.50;99.90;;;;;;5046780;28;20289;-67
2023/07/17 11:36:19;;;;;;;3.50;3.20;;;25.50;99.90;;;;;;5067900;28;20852;-63
2023/07/17 11:38:49;;;;;;;5.87;3.00;;;25.80;99.90;;;;;;5061849;28;20193;-62
2023/07/17 11:41:18;;;;;;;3.07;2.80;;;25.90;99.90;;;;;;5076950;28;20196;-63
2023/07/17 11:43:57;;;;;;;3.10;2.90;;;26.10;99.90;;;;;;5057402;28;20196;-63
2023/07/17 11:46:26;;;;;;;4.23;2.70;;;26.10;99.90;;;;;;5043226;28;20237;-62
2023/07/17 11:48:55;;;;;;;6.03;2.90;;;25.50;99.90;;;;;;5056437;28;20232;-62
2023/07/17 11:51:27;;;;;;;2.53;2.43;;;25.70;99.90;;;;;;5064703;28;20220;-63
2023/07/17 11:53:57;;;;;;;2.50;2.30;;;26.20;99.90;;;;;;5060433;28;20228;-62
2023/07/17 11:56:35;;;;;;;2.80;2.60;;;26.20;99.90;;;;;;5054096;28;20216;-63
2023/07/17 11:59:05;;;;;;;3.10;2.40;;;26.50;99.90;;;;;;5053305;28;20189;-63
2023/07/17 12:01:34;;;;;;;3.10;2.70;;;26.50;99.90;;;;;;5048685;28;20696;-63
2023/07/17 12:04:20;;;;;;;6.33;2.67;;;26.50;99.90;;;;;;5059355;28;20200;-63
2023/07/17 12:06:49;;;;;;;3.37;2.30;;;26.50;99.90;;;;;;5068183;28;20295;-62
2023/07/17 12:09:19;;;;;;;3.93;2.90;;;26.50;99.90;;;;;;5069507;28;20199;-63
2023/07/17 12:11:48;;;;;;;2.67;2.47;;;26.50;99.90;;;;;;5059477;28;20197;-63
2023/07/17 12:14:18;;;;;;;3.07;2.70;;;26.40;99.90;;;;;;5062059;28;20295;-63
2023/07/17 12:16:47;;;;;;;5.23;2.60;;;26.20;99.90;;;;;;5059297;28;20189;-63
2023/07/17 12:19:16;;;;;;;2.67;2.47;;;25.80;99.90;;;;;;5070992;28;20249;-62
2023/07/17 12:21:44;;;;;;;5.13;2.37;;;25.30;99.90;;;;;;5068273;28;20524;-63
2023/07/17 12:24:13;;;;;;;3.20;2.80;;;25.00;99.90;;;;;;5057655;28;20193;-63
2023/07/17 12:26:43;;;;;;;3.00;2.63;;;24.60;99.90;;;;;;5068858;28;20215;-63
2023/07/17 12:29:11;;;;;;;4.73;2.47;;;24.50;99.90;;;;;;5070556;28;20207;-63
2023/07/17 12:31:40;;;;;;;3.23;2.53;;;24.50;99.90;;;;;;5062249;28;20196;-63
2023/07/17 12:34:09;;;;;;;2.80;2.60;;;24.40;99.90;;;;;;5062130;28;20224;-63
2023/07/17 12:36:37;;;;;;;3.37;2.73;;;24.20;99.90;;;;;;5051651;28;20196;-62
2023/07/17 12:39:16;;;;;;;2.33;2.23;;;24.00;99.90;;;;;;5052565;28;20185;-62
2023/07/17 12:41:46;;;;;;;2.63;2.43;;;23.60;99.90;;;;;;5057509;28;20188;-62
2023/07/17 12:44:14;;;;;;;4.03;2.87;;;23.40;99.90;;;;;;5062512;28;20271;-62
2023/07/17 12:46:43;;;;;;;3.23;2.93;;;23.30;99.90;;;;;;5061672;28;20227;-62
2023/07/17 12:49:12;;;;;;;6.53;3.20;;;23.20;99.90;;;;;;5060654;28;20225;-63
2023/07/17 12:51:41;;;;;;;3.50;3.20;;;23.10;99.90;;;;;;5063555;28;20656;-63
2023/07/17 12:54:10;;;;;;;3.50;3.20;;;22.90;99.90;;;;;;5069889;28;20651;-62